sensor_id;sensor_type;location;lat;lon;timestamp;P1;durP1;ratioP1;P2;durP2;ratioP2
65461;SDS011;53236;43.666;18.444;2023-03-23T00:01:03;71.67;;;32.80;;
65461;SDS011;53236;43.666;18.444;2023-03-23T00:03:30;58.00;;;27.83;;
65461;SDS011;53236;43.666;18.444;2023-03-23T00:05:59;45.97;;;24.27;;
65461;SDS011;53236;43.666;18.444;2023-03-23T00:08:30;43.73;;;23.33;;
65461;SDS011;53236;43.666;18.444;2023-03-23T00:10:56;66.87;;;31.60;;
65461;SDS011;53236;43.666;18.444;2023-03-23T00:13:24;165.67;;;88.90;;
65461;SDS011;53236;43.666;18.444;2023-03-23T00:15:50;101.57;;;55.87;;
65461;SDS011;53236;43.666;18.444;2023-03-23T00:18:19;90.53;;;46.40;;
65461;SDS011;53236;43.666;18.444;2023-03-23T00:20:52;76.03;;;39.97;;
65461;SDS011;53236;43.666;18.444;2023-03-23T00:23:20;65.03;;;33.77;;
65461;SDS011;53236;43.666;18.444;2023-03-23T00:25:49;50.30;;;28.67;;
65461;SDS011;53236;43.666;18.444;2023-03-23T00:28:22;40.17;;;22.10;;
65461;SDS011;53236;43.666;18.444;2023-03-23T00:31:02;28.87;;;16.77;;
65461;SDS011;53236;43.666;18.444;2023-03-23T00:33:32;20.37;;;11.83;;
65461;SDS011;53236;43.666;18.444;2023-03-23T00:36:03;16.53;;;10.93;;
65461;SDS011;53236;43.666;18.444;2023-03-23T00:38:30;15.97;;;10.10;;
65461;SDS011;53236;43.666;18.444;2023-03-23T00:40:56;14.43;;;9.27;;
65461;SDS011;53236;43.666;18.444;2023-03-23T00:43:22;13.40;;;9.27;;
65461;SDS011;53236;43.666;18.444;2023-03-23T00:45:50;12.97;;;8.90;;
65461;SDS011;53236;43.666;18.444;2023-03-23T00:48:19;17.43;;;9.67;;
65461;SDS011;53236;43.666;18.444;2023-03-23T00:50:45;15.37;;;8.70;;
65461;SDS011;53236;43.666;18.444;2023-03-23T00:53:12;21.87;;;13.70;;
65461;SDS011;53236;43.666;18.444;2023-03-23T00:55:37;26.33;;;15.83;;
65461;SDS011;53236;43.666;18.444;2023-03-23T00:58:09;18.20;;;11.13;;
65461;SDS011;53236;43.666;18.444;2023-03-23T01:00:36;22.23;;;13.00;;
65461;SDS011;53236;43.666;18.444;2023-03-23T01:03:02;41.83;;;27.07;;
65461;SDS011;53236;43.666;18.444;2023-03-23T01:05:28;46.20;;;28.70;;
65461;SDS011;53236;43.666;18.444;2023-03-23T01:07:57;39.73;;;22.97;;
65461;SDS011;53236;43.666;18.444;2023-03-23T01:10:23;32.70;;;18.73;;
65461;SDS011;53236;43.666;18.444;2023-03-23T01:12:51;27.77;;;17.33;;
65461;SDS011;53236;43.666;18.444;2023-03-23T01:15:17;25.33;;;15.40;;
65461;SDS011;53236;43.666;18.444;2023-03-23T01:17:44;28.10;;;16.10;;
65461;SDS011;53236;43.666;18.444;2023-03-23T01:20:13;24.83;;;14.63;;
65461;SDS011;53236;43.666;18.444;2023-03-23T01:22:41;30.53;;;16.97;;
65461;SDS011;53236;43.666;18.444;2023-03-23T01:25:08;23.50;;;14.70;;
65461;SDS011;53236;43.666;18.444;2023-03-23T01:27:36;23.63;;;14.60;;
65461;SDS011;53236;43.666;18.444;2023-03-23T01:30:03;25.63;;;15.10;;
65461;SDS011;53236;43.666;18.444;2023-03-23T01:32:29;22.33;;;13.87;;
65461;SDS011;53236;43.666;18.444;2023-03-23T01:34:55;24.43;;;14.33;;
65461;SDS011;53236;43.666;18.444;2023-03-23T01:37:21;23.53;;;14.63;;
65461;SDS011;53236;43.666;18.444;2023-03-23T01:39:51;24.97;;;14.57;;
65461;SDS011;53236;43.666;18.444;2023-03-23T01:42:20;25.80;;;14.50;;
65461;SDS011;53236;43.666;18.444;2023-03-23T01:47:16;35.23;;;22.40;;
65461;SDS011;53236;43.666;18.444;2023-03-23T01:49:48;24.03;;;15.17;;
65461;SDS011;53236;43.666;18.444;2023-03-23T01:52:16;19.00;;;12.37;;
65461;SDS011;53236;43.666;18.444;2023-03-23T01:54:50;18.97;;;12.00;;
65461;SDS011;53236;43.666;18.444;2023-03-23T01:57:18;14.30;;;8.90;;
65461;SDS011;53236;43.666;18.444;2023-03-23T01:59:47;12.47;;;8.77;;
65461;SDS011;53236;43.666;18.444;2023-03-23T02:02:16;16.47;;;9.63;;
65461;SDS011;53236;43.666;18.444;2023-03-23T02:04:44;14.87;;;9.93;;
65461;SDS011;53236;43.666;18.444;2023-03-23T02:07:11;13.27;;;9.20;;
65461;SDS011;53236;43.666;18.444;2023-03-23T02:09:40;11.47;;;8.53;;
65461;SDS011;53236;43.666;18.444;2023-03-23T02:12:06;13.07;;;8.90;;
65461;SDS011;53236;43.666;18.444;2023-03-23T02:14:31;11.67;;;8.17;;
65461;SDS011;53236;43.666;18.444;2023-03-23T02:36:14;13.80;;;9.10;;
65461;SDS011;53236;43.666;18.444;2023-03-23T02:38:58;18.17;;;12.87;;
65461;SDS011;53236;43.666;18.444;2023-03-23T02:41:36;21.03;;;11.13;;
65461;SDS011;53236;43.666;18.444;2023-03-23T02:44:07;14.07;;;9.50;;
65461;SDS011;53236;43.666;18.444;2023-03-23T02:46:35;14.20;;;9.17;;
65461;SDS011;53236;43.666;18.444;2023-03-23T02:49:02;13.53;;;8.50;;
65461;SDS011;53236;43.666;18.444;2023-03-23T02:51:30;12.17;;;9.10;;
65461;SDS011;53236;43.666;18.444;2023-03-23T02:53:58;12.30;;;8.70;;
65461;SDS011;53236;43.666;18.444;2023-03-23T02:56:25;15.00;;;9.97;;
65461;SDS011;53236;43.666;18.444;2023-03-23T02:58:54;16.17;;;10.63;;
65461;SDS011;53236;43.666;18.444;2023-03-23T03:03:57;11.53;;;8.00;;
65461;SDS011;53236;43.666;18.444;2023-03-23T03:06:46;11.17;;;8.03;;
65461;SDS011;53236;43.666;18.444;2023-03-23T03:12:12;14.47;;;9.10;;
65461;SDS011;53236;43.666;18.444;2023-03-23T03:15:31;11.50;;;8.18;;
65461;SDS011;53236;43.666;18.444;2023-03-23T03:17:49;12.40;;;7.93;;
65461;SDS011;53236;43.666;18.444;2023-03-23T03:20:24;12.83;;;9.13;;
65461;SDS011;53236;43.666;18.444;2023-03-23T03:22:51;13.50;;;9.17;;
65461;SDS011;53236;43.666;18.444;2023-03-23T03:25:18;12.30;;;8.67;;
65461;SDS011;53236;43.666;18.444;2023-03-23T03:27:45;11.27;;;7.73;;
65461;SDS011;53236;43.666;18.444;2023-03-23T03:30:14;12.00;;;8.17;;
65461;SDS011;53236;43.666;18.444;2023-03-23T03:32:46;9.73;;;7.87;;
65461;SDS011;53236;43.666;18.444;2023-03-23T03:35:16;10.23;;;7.03;;
65461;SDS011;53236;43.666;18.444;2023-03-23T03:37:43;11.03;;;8.00;;
65461;SDS011;53236;43.666;18.444;2023-03-23T03:40:11;11.40;;;7.83;;
65461;SDS011;53236;43.666;18.444;2023-03-23T03:42:41;11.27;;;7.47;;
65461;SDS011;53236;43.666;18.444;2023-03-23T03:45:09;11.53;;;8.57;;
65461;SDS011;53236;43.666;18.444;2023-03-23T03:47:36;11.53;;;8.00;;
65461;SDS011;53236;43.666;18.444;2023-03-23T03:50:02;10.70;;;7.73;;
65461;SDS011;53236;43.666;18.444;2023-03-23T03:52:29;11.20;;;7.20;;
65461;SDS011;53236;43.666;18.444;2023-03-23T03:54:55;12.57;;;7.50;;
65461;SDS011;53236;43.666;18.444;2023-03-23T03:57:21;9.80;;;7.27;;
65461;SDS011;53236;43.666;18.444;2023-03-23T03:59:47;11.27;;;7.70;;
65461;SDS011;53236;43.666;18.444;2023-03-23T04:02:13;9.13;;;7.13;;
65461;SDS011;53236;43.666;18.444;2023-03-23T04:04:41;10.97;;;7.93;;
65461;SDS011;53236;43.666;18.444;2023-03-23T04:07:08;10.93;;;7.90;;
65461;SDS011;53236;43.666;18.444;2023-03-23T04:09:36;10.40;;;7.10;;
65461;SDS011;53236;43.666;18.444;2023-03-23T04:12:03;9.57;;;6.90;;
65461;SDS011;53236;43.666;18.444;2023-03-23T04:14:29;12.60;;;7.43;;
65461;SDS011;53236;43.666;18.444;2023-03-23T04:16:55;10.63;;;7.53;;
65461;SDS011;53236;43.666;18.444;2023-03-23T04:19:22;13.03;;;7.03;;
65461;SDS011;53236;43.666;18.444;2023-03-23T04:21:48;10.73;;;6.90;;
65461;SDS011;53236;43.666;18.444;2023-03-23T04:24:14;10.83;;;7.00;;
65461;SDS011;53236;43.666;18.444;2023-03-23T04:26:40;11.57;;;8.00;;
65461;SDS011;53236;43.666;18.444;2023-03-23T04:29:07;12.73;;;7.63;;
65461;SDS011;53236;43.666;18.444;2023-03-23T04:31:33;10.27;;;6.73;;
65461;SDS011;53236;43.666;18.444;2023-03-23T04:34:00;10.57;;;7.03;;
65461;SDS011;53236;43.666;18.444;2023-03-23T04:36:27;10.27;;;7.57;;
65461;SDS011;53236;43.666;18.444;2023-03-23T04:38:54;8.07;;;6.57;;
65461;SDS011;53236;43.666;18.444;2023-03-23T04:41:20;10.77;;;6.90;;
65461;SDS011;53236;43.666;18.444;2023-03-23T04:43:47;11.23;;;6.70;;
65461;SDS011;53236;43.666;18.444;2023-03-23T04:46:17;9.53;;;6.47;;
65461;SDS011;53236;43.666;18.444;2023-03-23T04:48:44;8.63;;;6.10;;
65461;SDS011;53236;43.666;18.444;2023-03-23T04:51:10;9.53;;;6.63;;
65461;SDS011;53236;43.666;18.444;2023-03-23T04:53:39;9.50;;;6.40;;
65461;SDS011;53236;43.666;18.444;2023-03-23T04:56:06;13.00;;;8.13;;
65461;SDS011;53236;43.666;18.444;2023-03-23T04:58:32;12.37;;;9.17;;
65461;SDS011;53236;43.666;18.444;2023-03-23T05:00:59;13.17;;;8.60;;
65461;SDS011;53236;43.666;18.444;2023-03-23T05:03:25;12.67;;;9.13;;
65461;SDS011;53236;43.666;18.444;2023-03-23T05:05:52;12.30;;;8.53;;
65461;SDS011;53236;43.666;18.444;2023-03-23T05:08:22;12.97;;;9.70;;
65461;SDS011;53236;43.666;18.444;2023-03-23T05:10:52;14.87;;;11.17;;
65461;SDS011;53236;43.666;18.444;2023-03-23T05:13:19;14.57;;;10.40;;
65461;SDS011;53236;43.666;18.444;2023-03-23T05:15:45;13.27;;;9.27;;
65461;SDS011;53236;43.666;18.444;2023-03-23T05:18:11;12.47;;;8.97;;
65461;SDS011;53236;43.666;18.444;2023-03-23T05:20:37;13.27;;;9.27;;
65461;SDS011;53236;43.666;18.444;2023-03-23T05:23:03;13.83;;;9.07;;
65461;SDS011;53236;43.666;18.444;2023-03-23T05:25:29;14.57;;;9.40;;
65461;SDS011;53236;43.666;18.444;2023-03-23T05:27:57;16.23;;;11.03;;
65461;SDS011;53236;43.666;18.444;2023-03-23T05:30:24;21.87;;;12.53;;
65461;SDS011;53236;43.666;18.444;2023-03-23T05:32:50;25.10;;;15.07;;
65461;SDS011;53236;43.666;18.444;2023-03-23T05:35:16;23.37;;;13.50;;
65461;SDS011;53236;43.666;18.444;2023-03-23T05:37:43;20.00;;;9.13;;
65461;SDS011;53236;43.666;18.444;2023-03-23T05:40:10;17.37;;;8.87;;
65461;SDS011;53236;43.666;18.444;2023-03-23T05:42:37;34.57;;;17.60;;
65461;SDS011;53236;43.666;18.444;2023-03-23T05:45:05;24.60;;;15.17;;
65461;SDS011;53236;43.666;18.444;2023-03-23T05:47:31;11.97;;;7.63;;
65461;SDS011;53236;43.666;18.444;2023-03-23T05:49:57;15.63;;;8.83;;
65461;SDS011;53236;43.666;18.444;2023-03-23T05:52:24;15.20;;;9.53;;
65461;SDS011;53236;43.666;18.444;2023-03-23T05:54:50;19.35;;;11.93;;
65461;SDS011;53236;43.666;18.444;2023-03-23T05:57:16;30.35;;;18.08;;
65461;SDS011;53236;43.666;18.444;2023-03-23T05:59:43;36.05;;;21.13;;
65461;SDS011;53236;43.666;18.444;2023-03-23T06:02:10;30.80;;;18.35;;
65461;SDS011;53236;43.666;18.444;2023-03-23T06:04:38;16.65;;;12.07;;
65461;SDS011;53236;43.666;18.444;2023-03-23T06:07:06;14.98;;;11.57;;
65461;SDS011;53236;43.666;18.444;2023-03-23T06:09:32;33.65;;;23.98;;
65461;SDS011;53236;43.666;18.444;2023-03-23T06:11:58;34.15;;;24.50;;
65461;SDS011;53236;43.666;18.444;2023-03-23T06:14:23;36.33;;;27.10;;
65461;SDS011;53236;43.666;18.444;2023-03-23T06:16:49;18.15;;;12.77;;
65461;SDS011;53236;43.666;18.444;2023-03-23T06:19:15;23.77;;;18.77;;
65461;SDS011;53236;43.666;18.444;2023-03-23T06:21:41;30.27;;;20.77;;
65461;SDS011;53236;43.666;18.444;2023-03-23T06:24:07;28.33;;;20.83;;
65461;SDS011;53236;43.666;18.444;2023-03-23T06:26:34;11.55;;;8.73;;
65461;SDS011;53236;43.666;18.444;2023-03-23T06:29:02;17.52;;;13.82;;
65461;SDS011;53236;43.666;18.444;2023-03-23T06:31:36;11.43;;;9.15;;
65461;SDS011;53236;43.666;18.444;2023-03-23T06:34:07;13.00;;;8.82;;
65461;SDS011;53236;43.666;18.444;2023-03-23T06:36:34;12.13;;;9.57;;
65461;SDS011;53236;43.666;18.444;2023-03-23T06:39:00;11.95;;;7.93;;
65461;SDS011;53236;43.666;18.444;2023-03-23T06:41:26;14.48;;;8.63;;
65461;SDS011;53236;43.666;18.444;2023-03-23T06:43:51;19.33;;;11.90;;
65461;SDS011;53236;43.666;18.444;2023-03-23T06:46:18;39.85;;;26.08;;
65461;SDS011;53236;43.666;18.444;2023-03-23T06:48:44;54.58;;;36.15;;
65461;SDS011;53236;43.666;18.444;2023-03-23T06:51:10;58.72;;;39.05;;
65461;SDS011;53236;43.666;18.444;2023-03-23T06:53:36;40.22;;;27.75;;
65461;SDS011;53236;43.666;18.444;2023-03-23T06:56:02;14.00;;;10.50;;
65461;SDS011;53236;43.666;18.444;2023-03-23T06:58:28;6.00;;;4.15;;
65461;SDS011;53236;43.666;18.444;2023-03-23T07:00:56;9.68;;;5.85;;
65461;SDS011;53236;43.666;18.444;2023-03-23T07:03:23;9.20;;;5.38;;
65461;SDS011;53236;43.666;18.444;2023-03-23T07:05:50;4.93;;;3.63;;
65461;SDS011;53236;43.666;18.444;2023-03-23T07:08:16;10.38;;;3.80;;
65461;SDS011;53236;43.666;18.444;2023-03-23T07:10:42;3.97;;;3.13;;
65461;SDS011;53236;43.666;18.444;2023-03-23T07:13:08;4.72;;;3.60;;
65461;SDS011;53236;43.666;18.444;2023-03-23T07:15:35;4.03;;;2.97;;
65461;SDS011;53236;43.666;18.444;2023-03-23T07:18:00;5.40;;;3.70;;
65461;SDS011;53236;43.666;18.444;2023-03-23T07:20:26;4.88;;;3.10;;
65461;SDS011;53236;43.666;18.444;2023-03-23T07:22:53;9.75;;;7.05;;
65461;SDS011;53236;43.666;18.444;2023-03-23T07:25:19;11.70;;;8.13;;
65461;SDS011;53236;43.666;18.444;2023-03-23T07:27:45;5.18;;;3.83;;
65461;SDS011;53236;43.666;18.444;2023-03-23T07:30:12;8.13;;;6.53;;
65461;SDS011;53236;43.666;18.444;2023-03-23T07:32:39;13.38;;;11.68;;
65461;SDS011;53236;43.666;18.444;2023-03-23T07:35:05;7.47;;;6.38;;
65461;SDS011;53236;43.666;18.444;2023-03-23T07:37:32;11.35;;;4.60;;
65461;SDS011;53236;43.666;18.444;2023-03-23T07:39:58;5.53;;;4.53;;
65461;SDS011;53236;43.666;18.444;2023-03-23T07:42:23;4.90;;;3.08;;
65461;SDS011;53236;43.666;18.444;2023-03-23T07:44:49;8.98;;;3.60;;
65461;SDS011;53236;43.666;18.444;2023-03-23T07:47:15;7.15;;;3.15;;
65461;SDS011;53236;43.666;18.444;2023-03-23T07:49:42;5.65;;;4.13;;
65461;SDS011;53236;43.666;18.444;2023-03-23T07:52:08;7.25;;;4.53;;
65461;SDS011;53236;43.666;18.444;2023-03-23T07:54:35;8.02;;;4.57;;
65461;SDS011;53236;43.666;18.444;2023-03-23T07:57:01;6.35;;;3.83;;
65461;SDS011;53236;43.666;18.444;2023-03-23T07:59:28;6.65;;;5.28;;
65461;SDS011;53236;43.666;18.444;2023-03-23T08:01:53;10.32;;;7.95;;
65461;SDS011;53236;43.666;18.444;2023-03-23T08:04:19;8.63;;;6.88;;
65461;SDS011;53236;43.666;18.444;2023-03-23T08:06:45;10.65;;;7.35;;
65461;SDS011;53236;43.666;18.444;2023-03-23T08:09:12;9.05;;;6.97;;
65461;SDS011;53236;43.666;18.444;2023-03-23T08:11:38;8.48;;;5.97;;
65461;SDS011;53236;43.666;18.444;2023-03-23T08:14:04;5.30;;;3.22;;
65461;SDS011;53236;43.666;18.444;2023-03-23T08:16:30;3.67;;;2.90;;
65461;SDS011;53236;43.666;18.444;2023-03-23T08:18:56;6.60;;;3.25;;
65461;SDS011;53236;43.666;18.444;2023-03-23T08:21:22;6.35;;;5.10;;
65461;SDS011;53236;43.666;18.444;2023-03-23T08:23:48;5.82;;;3.63;;
65461;SDS011;53236;43.666;18.444;2023-03-23T08:26:14;5.32;;;3.92;;
65461;SDS011;53236;43.666;18.444;2023-03-23T08:28:41;5.75;;;2.42;;
65461;SDS011;53236;43.666;18.444;2023-03-23T08:31:09;3.50;;;2.15;;
65461;SDS011;53236;43.666;18.444;2023-03-23T08:33:37;5.57;;;2.33;;
65461;SDS011;53236;43.666;18.444;2023-03-23T08:36:03;4.03;;;2.20;;
65461;SDS011;53236;43.666;18.444;2023-03-23T08:38:30;3.00;;;1.70;;
65461;SDS011;53236;43.666;18.444;2023-03-23T08:40:59;2.65;;;1.70;;
65461;SDS011;53236;43.666;18.444;2023-03-23T08:43:28;3.35;;;2.10;;
65461;SDS011;53236;43.666;18.444;2023-03-23T08:45:53;3.33;;;1.20;;
65461;SDS011;53236;43.666;18.444;2023-03-23T08:48:20;3.63;;;1.90;;
65461;SDS011;53236;43.666;18.444;2023-03-23T08:50:47;1.88;;;1.20;;
65461;SDS011;53236;43.666;18.444;2023-03-23T08:53:14;1.95;;;1.27;;
65461;SDS011;53236;43.666;18.444;2023-03-23T08:55:41;2.33;;;1.40;;
65461;SDS011;53236;43.666;18.444;2023-03-23T08:58:08;1.95;;;1.20;;
65461;SDS011;53236;43.666;18.444;2023-03-23T09:00:34;2.63;;;1.00;;
65461;SDS011;53236;43.666;18.444;2023-03-23T09:03:00;7.00;;;0.45;;
65461;SDS011;53236;43.666;18.444;2023-03-23T09:05:27;1.83;;;0.50;;
65461;SDS011;53236;43.666;18.444;2023-03-23T09:07:54;3.60;;;1.35;;
65461;SDS011;53236;43.666;18.444;2023-03-23T09:10:24;1.02;;;0.68;;
65461;SDS011;53236;43.666;18.444;2023-03-23T09:12:52;1.27;;;0.55;;
65461;SDS011;53236;43.666;18.444;2023-03-23T09:15:18;0.40;;;0.20;;
65461;SDS011;53236;43.666;18.444;2023-03-23T09:17:45;0.28;;;0.20;;
65461;SDS011;53236;43.666;18.444;2023-03-23T09:20:14;0.32;;;0.10;;
65461;SDS011;53236;43.666;18.444;2023-03-23T09:22:44;0.75;;;0.40;;
65461;SDS011;53236;43.666;18.444;2023-03-23T09:25:14;1.40;;;0.40;;
65461;SDS011;53236;43.666;18.444;2023-03-23T09:27:42;0.15;;;0.10;;
65461;SDS011;53236;43.666;18.444;2023-03-23T09:30:10;0.47;;;0.20;;
65461;SDS011;53236;43.666;18.444;2023-03-23T09:32:37;0.65;;;0.30;;
65461;SDS011;53236;43.666;18.444;2023-03-23T09:35:05;0.50;;;0.20;;
65461;SDS011;53236;43.666;18.444;2023-03-23T09:37:36;1.70;;;0.30;;
65461;SDS011;53236;43.666;18.444;2023-03-23T09:40:04;0.95;;;0.40;;
65461;SDS011;53236;43.666;18.444;2023-03-23T09:42:54;0.90;;;0.40;;
65461;SDS011;53236;43.666;18.444;2023-03-23T09:45:41;0.90;;;0.50;;
65461;SDS011;53236;43.666;18.444;2023-03-23T09:51:15;2.10;;;0.60;;
65461;SDS011;53236;43.666;18.444;2023-03-23T09:53:48;1.88;;;0.57;;
65461;SDS011;53236;43.666;18.444;2023-03-23T09:56:20;1.75;;;0.75;;
65461;SDS011;53236;43.666;18.444;2023-03-23T09:58:51;1.85;;;1.02;;
65461;SDS011;53236;43.666;18.444;2023-03-23T10:01:27;2.33;;;0.70;;
65461;SDS011;53236;43.666;18.444;2023-03-23T10:06:52;2.78;;;1.40;;
65461;SDS011;53236;43.666;18.444;2023-03-23T10:09:26;3.03;;;1.60;;
65461;SDS011;53236;43.666;18.444;2023-03-23T10:19:58;3.13;;;1.55;;
65461;SDS011;53236;43.666;18.444;2023-03-23T10:22:50;2.35;;;1.30;;
65461;SDS011;53236;43.666;18.444;2023-03-23T10:25:26;4.38;;;2.65;;
65461;SDS011;53236;43.666;18.444;2023-03-23T10:27:59;2.92;;;1.40;;
65461;SDS011;53236;43.666;18.444;2023-03-23T10:38:49;3.42;;;1.17;;
65461;SDS011;53236;43.666;18.444;2023-03-23T10:41:17;4.60;;;1.95;;
65461;SDS011;53236;43.666;18.444;2023-03-23T10:43:44;3.20;;;1.67;;
65461;SDS011;53236;43.666;18.444;2023-03-23T10:49:14;4.38;;;1.50;;
65461;SDS011;53236;43.666;18.444;2023-03-23T10:51:46;2.78;;;1.38;;
65461;SDS011;53236;43.666;18.444;2023-03-23T10:54:25;47.00;;;23.13;;
65461;SDS011;53236;43.666;18.444;2023-03-23T10:56:53;27.40;;;11.35;;
65461;SDS011;53236;43.666;18.444;2023-03-23T10:59:28;8.45;;;2.72;;
65461;SDS011;53236;43.666;18.444;2023-03-23T11:01:58;5.38;;;2.47;;
65461;SDS011;53236;43.666;18.444;2023-03-23T11:04:28;7.20;;;2.90;;
65461;SDS011;53236;43.666;18.444;2023-03-23T11:06:58;11.75;;;4.72;;
65461;SDS011;53236;43.666;18.444;2023-03-23T11:09:36;4.03;;;2.20;;
65461;SDS011;53236;43.666;18.444;2023-03-23T11:12:17;5.57;;;2.70;;
65461;SDS011;53236;43.666;18.444;2023-03-23T11:14:45;3.08;;;1.83;;
65461;SDS011;53236;43.666;18.444;2023-03-23T11:17:24;3.80;;;1.95;;
65461;SDS011;53236;43.666;18.444;2023-03-23T11:19:51;2.65;;;1.50;;
65461;SDS011;53236;43.666;18.444;2023-03-23T11:22:31;2.60;;;1.73;;
65461;SDS011;53236;43.666;18.444;2023-03-23T11:25:02;8.95;;;4.78;;
65461;SDS011;53236;43.666;18.444;2023-03-23T11:27:30;36.65;;;20.58;;
65461;SDS011;53236;43.666;18.444;2023-03-23T11:30:01;6.65;;;3.78;;
65461;SDS011;53236;43.666;18.444;2023-03-23T11:32:35;2.97;;;1.70;;
65461;SDS011;53236;43.666;18.444;2023-03-23T11:35:05;2.72;;;1.58;;
65461;SDS011;53236;43.666;18.444;2023-03-23T11:37:43;3.15;;;1.70;;
65461;SDS011;53236;43.666;18.444;2023-03-23T11:40:19;2.92;;;1.80;;
65461;SDS011;53236;43.666;18.444;2023-03-23T11:42:56;2.75;;;1.48;;
65461;SDS011;53236;43.666;18.444;2023-03-23T11:48:06;3.30;;;1.70;;
65461;SDS011;53236;43.666;18.444;2023-03-23T11:53:27;4.53;;;1.92;;
65461;SDS011;53236;43.666;18.444;2023-03-23T11:56:19;5.20;;;2.20;;
65461;SDS011;53236;43.666;18.444;2023-03-23T11:58:49;3.05;;;1.40;;
65461;SDS011;53236;43.666;18.444;2023-03-23T12:01:24;3.58;;;1.42;;
65461;SDS011;53236;43.666;18.444;2023-03-23T12:21:21;3.58;;;2.28;;
65461;SDS011;53236;43.666;18.444;2023-03-23T12:24:04;3.03;;;1.42;;
65461;SDS011;53236;43.666;18.444;2023-03-23T12:26:50;2.38;;;1.38;;
65461;SDS011;53236;43.666;18.444;2023-03-23T12:46:14;2.97;;;1.65;;
65461;SDS011;53236;43.666;18.444;2023-03-23T12:49:21;3.22;;;1.73;;
65461;SDS011;53236;43.666;18.444;2023-03-23T12:51:52;6.30;;;4.65;;
65461;SDS011;53236;43.666;18.444;2023-03-23T12:56:56;3.38;;;1.60;;
65461;SDS011;53236;43.666;18.444;2023-03-23T12:59:35;3.53;;;1.75;;
65461;SDS011;53236;43.666;18.444;2023-03-23T13:02:10;5.32;;;3.60;;
65461;SDS011;53236;43.666;18.444;2023-03-23T13:04:51;6.90;;;3.40;;
65461;SDS011;53236;43.666;18.444;2023-03-23T13:07:26;2.47;;;1.60;;
65461;SDS011;53236;43.666;18.444;2023-03-23T13:10:01;3.40;;;1.60;;
65461;SDS011;53236;43.666;18.444;2023-03-23T13:12:29;3.63;;;1.92;;
65461;SDS011;53236;43.666;18.444;2023-03-23T13:15:10;3.92;;;1.63;;
65461;SDS011;53236;43.666;18.444;2023-03-23T13:23:36;2.80;;;1.48;;
65461;SDS011;53236;43.666;18.444;2023-03-23T13:26:20;3.80;;;1.85;;
65461;SDS011;53236;43.666;18.444;2023-03-23T13:31:20;3.63;;;1.70;;
65461;SDS011;53236;43.666;18.444;2023-03-23T13:33:57;5.03;;;2.03;;
65461;SDS011;53236;43.666;18.444;2023-03-23T13:36:59;3.65;;;2.10;;
65461;SDS011;53236;43.666;18.444;2023-03-23T13:42:20;4.07;;;2.20;;
65461;SDS011;53236;43.666;18.444;2023-03-23T13:50:31;5.30;;;2.42;;
65461;SDS011;53236;43.666;18.444;2023-03-23T13:57:54;7.90;;;5.97;;
65461;SDS011;53236;43.666;18.444;2023-03-23T14:08:20;3.38;;;2.30;;
65461;SDS011;53236;43.666;18.444;2023-03-23T14:11:47;4.25;;;2.75;;
65461;SDS011;53236;43.666;18.444;2023-03-23T14:14:13;5.72;;;2.55;;
65461;SDS011;53236;43.666;18.444;2023-03-23T14:16:48;3.65;;;2.05;;
65461;SDS011;53236;43.666;18.444;2023-03-23T14:19:23;4.53;;;2.90;;
65461;SDS011;53236;43.666;18.444;2023-03-23T14:21:54;6.00;;;2.67;;
65461;SDS011;53236;43.666;18.444;2023-03-23T14:24:29;5.93;;;2.83;;
65461;SDS011;53236;43.666;18.444;2023-03-23T14:27:09;2.90;;;2.05;;
65461;SDS011;53236;43.666;18.444;2023-03-23T14:29:35;3.45;;;2.15;;
65461;SDS011;53236;43.666;18.444;2023-03-23T14:32:01;7.28;;;2.40;;
65461;SDS011;53236;43.666;18.444;2023-03-23T14:34:29;4.13;;;2.30;;
65461;SDS011;53236;43.666;18.444;2023-03-23T14:36:56;3.33;;;2.08;;
65461;SDS011;53236;43.666;18.444;2023-03-23T14:39:27;4.60;;;2.30;;
65461;SDS011;53236;43.666;18.444;2023-03-23T14:42:01;2.95;;;2.10;;
65461;SDS011;53236;43.666;18.444;2023-03-23T14:44:31;4.90;;;2.30;;
65461;SDS011;53236;43.666;18.444;2023-03-23T14:47:03;3.47;;;1.92;;
65461;SDS011;53236;43.666;18.444;2023-03-23T14:49:34;5.82;;;2.30;;
65461;SDS011;53236;43.666;18.444;2023-03-23T14:52:08;4.70;;;2.05;;
65461;SDS011;53236;43.666;18.444;2023-03-23T14:54:34;5.25;;;3.60;;
65461;SDS011;53236;43.666;18.444;2023-03-23T14:57:14;4.70;;;2.90;;
65461;SDS011;53236;43.666;18.444;2023-03-23T14:59:43;5.60;;;3.05;;
65461;SDS011;53236;43.666;18.444;2023-03-23T15:02:12;4.75;;;2.95;;
65461;SDS011;53236;43.666;18.444;2023-03-23T15:04:45;3.03;;;1.90;;
65461;SDS011;53236;43.666;18.444;2023-03-23T15:07:15;10.63;;;2.92;;
65461;SDS011;53236;43.666;18.444;2023-03-23T15:09:43;3.78;;;1.95;;
65461;SDS011;53236;43.666;18.444;2023-03-23T15:12:19;4.03;;;2.13;;
65461;SDS011;53236;43.666;18.444;2023-03-23T15:14:50;3.70;;;1.70;;
65461;SDS011;53236;43.666;18.444;2023-03-23T15:17:28;3.65;;;2.17;;
65461;SDS011;53236;43.666;18.444;2023-03-23T15:19:56;4.63;;;3.20;;
65461;SDS011;53236;43.666;18.444;2023-03-23T15:22:27;3.95;;;1.90;;
65461;SDS011;53236;43.666;18.444;2023-03-23T15:25:03;3.47;;;2.00;;
65461;SDS011;53236;43.666;18.444;2023-03-23T15:27:33;2.95;;;1.60;;
65461;SDS011;53236;43.666;18.444;2023-03-23T15:32:50;4.53;;;3.03;;
65461;SDS011;53236;43.666;18.444;2023-03-23T15:35:19;2.85;;;1.73;;
65461;SDS011;53236;43.666;18.444;2023-03-23T15:37:48;4.90;;;1.65;;
65461;SDS011;53236;43.666;18.444;2023-03-23T15:40:17;2.70;;;1.73;;
65461;SDS011;53236;43.666;18.444;2023-03-23T15:42:45;3.10;;;2.00;;
65461;SDS011;53236;43.666;18.444;2023-03-23T15:47:47;4.38;;;2.30;;
65461;SDS011;53236;43.666;18.444;2023-03-23T15:52:52;3.73;;;1.80;;
65461;SDS011;53236;43.666;18.444;2023-03-23T15:55:26;2.83;;;1.60;;
65461;SDS011;53236;43.666;18.444;2023-03-23T15:57:57;3.65;;;2.60;;
65461;SDS011;53236;43.666;18.444;2023-03-23T16:00:24;3.20;;;2.10;;
65461;SDS011;53236;43.666;18.444;2023-03-23T16:02:55;5.47;;;2.27;;
65461;SDS011;53236;43.666;18.444;2023-03-23T16:05:25;2.80;;;1.77;;
65461;SDS011;53236;43.666;18.444;2023-03-23T16:07:52;3.73;;;1.33;;
65461;SDS011;53236;43.666;18.444;2023-03-23T16:10:19;3.07;;;1.50;;
65461;SDS011;53236;43.666;18.444;2023-03-23T16:12:47;2.20;;;1.50;;
65461;SDS011;53236;43.666;18.444;2023-03-23T16:15:13;2.67;;;1.73;;
65461;SDS011;53236;43.666;18.444;2023-03-23T16:17:40;3.20;;;1.60;;
65461;SDS011;53236;43.666;18.444;2023-03-23T16:20:24;2.93;;;1.40;;
65461;SDS011;53236;43.666;18.444;2023-03-23T16:22:51;2.70;;;1.27;;
65461;SDS011;53236;43.666;18.444;2023-03-23T16:25:17;1.87;;;1.03;;
65461;SDS011;53236;43.666;18.444;2023-03-23T16:27:44;3.37;;;1.40;;
65461;SDS011;53236;43.666;18.444;2023-03-23T16:30:18;3.17;;;1.40;;
65461;SDS011;53236;43.666;18.444;2023-03-23T16:32:50;3.77;;;1.57;;
65461;SDS011;53236;43.666;18.444;2023-03-23T16:35:16;5.77;;;2.70;;
65461;SDS011;53236;43.666;18.444;2023-03-23T16:37:43;4.43;;;2.87;;
65461;SDS011;53236;43.666;18.444;2023-03-23T16:40:13;7.00;;;3.50;;
65461;SDS011;53236;43.666;18.444;2023-03-23T16:42:40;7.80;;;4.30;;
65461;SDS011;53236;43.666;18.444;2023-03-23T16:45:06;8.17;;;4.93;;
65461;SDS011;53236;43.666;18.444;2023-03-23T16:47:33;7.43;;;4.23;;
65461;SDS011;53236;43.666;18.444;2023-03-23T16:49:59;8.73;;;4.83;;
65461;SDS011;53236;43.666;18.444;2023-03-23T16:52:25;5.73;;;3.73;;